createdAt,value
2019-04-01T00:00:28.104Z,45.97
2019-04-01T00:02:53.992Z,46.63
2019-04-01T00:05:19.936Z,46.27
2019-04-01T00:07:45.811Z,45.50
2019-04-01T00:10:11.890Z,45.13
2019-04-01T00:12:37.813Z,45.77
2019-04-01T00:15:05.648Z,45.47
2019-04-01T00:17:31.714Z,44.43
2019-04-01T00:19:57.540Z,45.80
2019-04-01T00:22:23.410Z,42.30
2019-04-01T00:24:49.278Z,44.83
2019-04-01T00:27:15.108Z,44.27
2019-04-01T00:29:40.967Z,43.37
2019-04-01T00:32:06.919Z,44.10
2019-04-01T00:34:32.770Z,41.50
2019-04-01T00:36:58.588Z,46.00
2019-04-01T00:39:24.474Z,47.87
2019-04-01T00:42:01.653Z,41.63
2019-04-01T00:44:27.541Z,43.97
2019-04-01T00:46:53.386Z,41.30
2019-04-01T00:49:19.342Z,43.13
2019-04-01T00:51:45.230Z,42.87
2019-04-01T00:54:11.082Z,42.20
2019-04-01T00:56:36.925Z,42.43
2019-04-01T00:59:03.218Z,45.87
2019-04-01T01:01:29.050Z,43.53
2019-04-01T01:03:54.985Z,42.97
2019-04-01T01:06:20.940Z,46.77
2019-04-01T01:08:47.036Z,45.30
2019-04-01T01:11:12.961Z,44.47
2019-04-01T01:13:38.959Z,44.27
2019-04-01T01:16:04.915Z,44.27
2019-04-01T01:18:30.737Z,44.73
2019-04-01T01:20:56.619Z,42.63
2019-04-01T01:23:22.543Z,42.27
2019-04-01T01:25:48.357Z,47.67
2019-04-01T01:28:14.214Z,44.13
2019-04-01T01:30:40.156Z,49.27
2019-04-01T01:33:06.037Z,40.57
2019-04-01T01:35:32.681Z,42.40
2019-04-01T01:37:58.502Z,42.40
2019-04-01T01:40:24.559Z,41.27
2019-04-01T01:42:50.399Z,39.97
2019-04-01T01:45:16.416Z,40.97
2019-04-01T01:47:42.421Z,46.30
2019-04-01T01:50:08.377Z,43.60
2019-04-01T01:52:34.327Z,41.60
2019-04-01T01:55:00.495Z,43.20
2019-04-01T01:57:26.337Z,49.17
2019-04-01T01:59:52.169Z,43.80
2019-04-01T02:02:18.251Z,46.13
2019-04-01T02:04:44.163Z,43.37
2019-04-01T02:07:09.989Z,44.40
2019-04-01T02:09:35.855Z,44.60
2019-04-01T02:12:01.667Z,40.90
2019-04-01T02:14:27.640Z,42.73
2019-04-01T02:16:53.482Z,46.83
2019-04-01T02:19:19.463Z,43.80
2019-04-01T02:21:45.349Z,45.70
2019-04-01T02:24:11.212Z,44.23
2019-04-01T02:26:37.055Z,42.63
2019-04-01T02:29:03.018Z,45.53
2019-04-01T02:31:28.894Z,42.70
2019-04-01T02:33:54.715Z,41.73
2019-04-01T02:36:20.669Z,42.13
2019-04-01T02:38:46.508Z,40.57
2019-04-01T02:41:16.739Z,44.93
2019-04-01T02:43:42.672Z,45.03
2019-04-01T02:46:08.507Z,52.37
2019-04-01T02:48:34.366Z,43.17
2019-04-01T02:51:00.297Z,48.00
2019-04-01T02:53:26.141Z,41.53
2019-04-01T02:55:52.071Z,40.77
2019-04-01T02:58:18.013Z,46.67
2019-04-01T03:00:44.112Z,43.03
2019-04-01T03:03:09.978Z,46.93
2019-04-01T03:05:35.818Z,43.87
2019-04-01T03:08:01.865Z,39.73
2019-04-01T03:10:27.699Z,42.60
2019-04-01T03:12:53.676Z,39.90
2019-04-01T03:15:19.618Z,38.83
2019-04-01T03:17:45.579Z,46.23
2019-04-01T03:20:11.936Z,44.13
2019-04-01T03:22:37.755Z,41.53
2019-04-01T03:25:04.672Z,41.20
2019-04-01T03:27:30.555Z,42.37
2019-04-01T03:29:56.431Z,47.33
2019-04-01T03:32:22.370Z,41.50
2019-04-01T03:34:48.440Z,43.17
2019-04-01T03:37:14.309Z,41.73
2019-04-01T03:39:40.249Z,40.83
2019-04-01T03:42:06.232Z,40.37
2019-04-01T03:44:32.074Z,41.10
2019-04-01T03:46:58.102Z,38.80
2019-04-01T03:49:23.934Z,42.30
2019-04-01T03:51:49.847Z,42.43
2019-04-01T03:54:15.777Z,43.70
2019-04-01T03:56:41.635Z,40.53
2019-04-01T03:59:07.452Z,42.20
2019-04-01T04:01:33.334Z,40.93
2019-04-01T04:03:59.187Z,42.80
2019-04-01T04:06:25.023Z,45.57
2019-04-01T04:08:50.931Z,39.60
2019-04-01T04:11:16.881Z,44.00
2019-04-01T04:13:42.819Z,45.43
2019-04-01T04:16:08.701Z,40.57
2019-04-01T04:18:34.681Z,43.30
2019-04-01T04:21:00.627Z,43.17
2019-04-01T04:23:26.483Z,41.93
2019-04-01T04:25:52.584Z,39.80
2019-04-01T04:28:18.666Z,42.23
2019-04-01T04:30:45.186Z,42.07
2019-04-01T04:33:11.123Z,40.80
2019-04-01T04:35:36.986Z,39.40
2019-04-01T04:38:02.912Z,43.53
2019-04-01T04:40:28.839Z,47.43
2019-04-01T04:42:54.753Z,40.90
2019-04-01T04:45:20.669Z,39.93
2019-04-01T04:47:46.709Z,48.97
2019-04-01T04:50:12.752Z,42.83
2019-04-01T04:52:38.587Z,48.60
2019-04-01T04:55:05.072Z,40.03
2019-04-01T04:57:30.919Z,42.17
2019-04-01T04:59:56.961Z,42.60
2019-04-01T05:02:24.549Z,36.80
2019-04-01T05:04:50.675Z,40.97
2019-04-01T05:07:16.706Z,38.57
2019-04-01T05:09:42.590Z,42.60
2019-04-01T05:12:08.433Z,43.40
2019-04-01T05:14:34.507Z,46.67
2019-04-01T05:17:00.554Z,41.93
2019-04-01T05:19:26.621Z,40.77
2019-04-01T05:21:53.344Z,39.07
2019-04-01T05:24:19.459Z,39.53
2019-04-01T05:26:47.286Z,47.17
2019-04-01T05:29:13.404Z,40.63
2019-04-01T05:31:41.572Z,42.30
2019-04-01T05:34:11.215Z,41.87
2019-04-01T05:36:37.544Z,44.90
2019-04-01T05:39:05.865Z,41.77
2019-04-01T05:41:32.416Z,40.03
2019-04-01T05:44:02.039Z,47.60
2019-04-01T05:46:26.442Z,40.20
2019-04-01T05:48:52.622Z,39.13
2019-04-01T05:51:18.645Z,39.20
2019-04-01T05:53:45.117Z,46.73
2019-04-01T05:56:11.248Z,40.70
2019-04-01T05:58:37.317Z,39.77
2019-04-01T06:01:11.145Z,50.77
2019-04-01T06:03:37.217Z,47.50
2019-04-01T06:06:03.234Z,49.43
2019-04-01T06:08:29.293Z,41.40
2019-04-01T06:10:55.460Z,46.57
2019-04-01T06:13:21.484Z,51.87
2019-04-01T06:15:47.434Z,42.63
2019-04-01T06:18:13.479Z,45.53
2019-04-01T06:20:39.543Z,40.77
2019-04-01T06:23:05.482Z,42.93
2019-04-01T06:25:31.567Z,38.43
2019-04-01T06:27:57.467Z,40.50
2019-04-01T06:30:23.511Z,44.60
2019-04-01T06:32:49.333Z,37.83
2019-04-01T06:35:15.346Z,40.83
2019-04-01T06:37:41.479Z,45.60
2019-04-01T06:40:07.812Z,55.33
2019-04-01T06:42:33.881Z,44.40
2019-04-01T06:44:59.912Z,43.33
2019-04-01T06:47:26.027Z,46.30
2019-04-01T06:49:52.261Z,40.37
2019-04-01T06:52:18.310Z,44.87
2019-04-01T06:54:44.459Z,36.33
2019-04-01T06:57:10.392Z,42.50
2019-04-01T06:59:36.324Z,37.37
2019-04-01T07:02:02.317Z,32.87
2019-04-01T07:04:28.893Z,40.13
2019-04-01T07:06:54.722Z,41.57
2019-04-01T07:09:20.639Z,43.07
2019-04-01T07:11:46.823Z,36.07
2019-04-01T07:14:12.833Z,42.33
2019-04-01T07:16:40.174Z,35.97
2019-04-01T07:19:06.270Z,40.10
2019-04-01T07:21:32.243Z,39.93
2019-04-01T07:23:58.307Z,36.10
2019-04-01T07:26:24.151Z,38.10
2019-04-01T07:28:49.974Z,41.33
2019-04-01T07:31:16.023Z,40.57
2019-04-01T07:33:42.568Z,41.87
2019-04-01T07:36:08.649Z,40.60
2019-04-01T07:38:34.583Z,41.40
2019-04-01T07:41:00.415Z,36.47
2019-04-01T07:43:27.617Z,40.23
2019-04-01T07:45:53.668Z,40.83
2019-04-01T07:48:19.757Z,43.13
2019-04-01T07:50:45.694Z,35.37
2019-04-01T07:53:11.564Z,43.33
2019-04-01T07:55:37.632Z,39.57
2019-04-01T07:58:03.675Z,43.23
2019-04-01T08:00:29.728Z,37.03
2019-04-01T08:02:55.897Z,42.60
2019-04-01T08:05:21.731Z,42.50
2019-04-01T08:07:47.765Z,42.17
2019-04-01T08:10:14.553Z,42.83
2019-04-01T08:12:40.398Z,37.50
2019-04-01T08:15:06.712Z,51.87
2019-04-01T08:17:32.707Z,50.87
2019-04-01T08:19:59.064Z,40.57
2019-04-01T08:22:25.093Z,43.60
2019-04-01T08:27:23.775Z,46.87
2019-04-01T08:29:49.806Z,45.47
2019-04-01T08:32:15.682Z,47.33
2019-04-01T08:34:41.706Z,43.60
2019-04-01T08:37:07.835Z,43.23
2019-04-01T08:39:33.949Z,47.07
2019-04-01T08:42:00.955Z,46.77
2019-04-01T08:44:27.082Z,45.67
2019-04-01T08:46:53.231Z,44.63
2019-04-01T08:49:19.053Z,46.13
2019-04-01T08:51:45.172Z,43.77
2019-04-01T08:54:11.096Z,46.50
2019-04-01T08:56:37.973Z,38.97
2019-04-01T08:59:04.359Z,39.57
2019-04-01T09:01:35.504Z,36.63
2019-04-01T09:03:58.162Z,34.57
2019-04-01T09:06:24.073Z,39.23
2019-04-01T09:08:51.508Z,41.20
2019-04-01T09:11:17.429Z,38.03
2019-04-01T09:13:44.083Z,45.00
2019-04-01T09:16:14.721Z,43.13
2019-04-01T09:18:40.529Z,41.87
2019-04-01T09:21:06.613Z,38.17
2019-04-01T09:23:32.455Z,37.73
2019-04-01T09:25:58.298Z,39.53
2019-04-01T09:28:24.189Z,35.93
2019-04-01T09:30:50.132Z,40.90
2019-04-01T09:33:15.965Z,36.33
2019-04-01T09:35:42.042Z,37.63
2019-04-01T09:38:07.976Z,35.50
2019-04-01T09:40:34.003Z,34.93
2019-04-01T09:42:59.928Z,36.53
2019-04-01T09:45:25.971Z,40.30
2019-04-01T09:47:51.882Z,34.33
2019-04-01T09:50:18.088Z,40.67
2019-04-01T09:52:44.042Z,34.33
2019-04-01T09:55:10.055Z,33.70
2019-04-01T09:57:35.949Z,33.23
2019-04-01T10:00:07.829Z,33.53
2019-04-01T10:02:33.728Z,31.23
2019-04-01T10:04:59.656Z,33.60
2019-04-01T10:07:25.536Z,31.83
2019-04-01T10:09:51.499Z,30.47
2019-04-01T10:12:17.413Z,30.73
2019-04-01T10:14:43.244Z,31.47
2019-04-01T10:17:10.550Z,33.63
2019-04-01T10:19:36.399Z,34.13
2019-04-01T10:22:02.409Z,35.57
2019-04-01T10:24:28.552Z,32.10
2019-04-01T10:26:54.687Z,35.60
2019-04-01T10:29:20.690Z,35.13
2019-04-01T10:31:46.952Z,40.63
2019-04-01T10:34:12.833Z,36.33
2019-04-01T10:36:38.828Z,35.03
2019-04-01T10:39:06.025Z,33.60
2019-04-01T10:41:32.124Z,36.00
2019-04-01T10:43:58.027Z,34.07
2019-04-01T10:46:24.003Z,37.60
2019-04-01T10:48:50.017Z,33.67
2019-04-01T10:51:15.940Z,38.57
2019-04-01T10:53:41.863Z,35.03
2019-04-01T10:56:07.987Z,39.50
2019-04-01T10:58:34.077Z,36.30
2019-04-01T11:01:00.096Z,40.00
2019-04-01T11:03:26.312Z,35.33
2019-04-01T11:05:52.252Z,35.10
2019-04-01T11:08:18.329Z,34.63
2019-04-01T11:10:44.256Z,34.73
2019-04-01T11:13:10.128Z,34.03
2019-04-01T11:15:36.163Z,38.97
2019-04-01T11:18:02.211Z,30.67
2019-04-01T11:20:28.107Z,31.93
2019-04-01T11:22:54.148Z,32.07
2019-04-01T11:25:20.268Z,26.87
2019-04-01T11:27:46.254Z,28.87
2019-04-01T11:30:14.179Z,22.93
2019-04-01T11:32:40.756Z,22.53
2019-04-01T11:35:07.612Z,24.77
2019-04-01T11:37:33.649Z,23.57
2019-04-01T11:39:59.670Z,23.67
2019-04-01T11:42:25.537Z,22.73
2019-04-01T11:44:52.540Z,22.23
2019-04-01T11:47:21.967Z,26.70
2019-04-01T11:49:46.695Z,29.20
2019-04-01T11:52:15.535Z,26.33
2019-04-01T11:54:40.787Z,25.97
2019-04-01T11:57:06.898Z,28.23
2019-04-01T11:59:32.871Z,27.07
2019-04-01T12:01:58.776Z,27.23
2019-04-01T12:04:24.787Z,21.53
2019-04-01T12:06:50.974Z,29.13
2019-04-01T12:09:16.863Z,23.17
2019-04-01T12:11:42.784Z,28.50
2019-04-01T12:14:08.696Z,24.90
2019-04-01T12:16:34.813Z,24.20
2019-04-01T12:19:01.687Z,28.70
2019-04-01T12:21:27.577Z,26.57
2019-04-01T12:23:53.452Z,29.67
2019-04-01T12:26:19.393Z,32.53
2019-04-01T12:28:45.275Z,24.07
2019-04-01T12:31:12.970Z,26.03
2019-04-01T12:33:39.572Z,27.63
2019-04-01T12:36:06.180Z,34.23
2019-04-01T12:38:32.170Z,34.30
2019-04-01T12:40:58.163Z,28.43
2019-04-01T12:43:24.173Z,23.30
2019-04-01T12:45:50.257Z,26.20
2019-04-01T12:48:16.194Z,29.70
2019-04-01T12:50:42.185Z,30.53
2019-04-01T12:53:08.907Z,25.80
2019-04-01T12:55:34.906Z,27.60
2019-04-01T12:58:00.834Z,26.03
2019-04-01T13:00:29.105Z,32.20
2019-04-01T13:02:54.605Z,22.57
2019-04-01T13:05:20.554Z,23.33
2019-04-01T13:07:46.405Z,26.17
2019-04-01T13:10:12.513Z,26.23
2019-04-01T13:12:38.467Z,33.38
2019-04-01T13:15:05.671Z,21.97
2019-04-01T13:17:31.679Z,26.95
2019-04-01T13:19:57.723Z,26.05
2019-04-01T13:22:23.686Z,30.15
2019-04-01T13:24:49.667Z,23.18
2019-04-01T13:27:15.814Z,22.77
2019-04-01T13:29:41.706Z,25.15
2019-04-01T13:32:07.621Z,21.42
2019-04-01T13:34:35.452Z,22.17
2019-04-01T13:37:01.484Z,20.77
2019-04-01T13:39:27.643Z,22.62
2019-04-01T13:41:56.225Z,21.37
2019-04-01T13:44:35.808Z,21.50
2019-04-01T13:46:50.642Z,22.48
2019-04-01T13:49:16.813Z,23.47
2019-04-01T13:51:43.842Z,17.73
2019-04-01T13:54:11.444Z,22.80
2019-04-01T13:56:38.108Z,28.42
2019-04-01T13:59:04.108Z,21.97
2019-04-01T14:01:30.096Z,27.00
2019-04-01T14:03:55.992Z,25.10
2019-04-01T14:06:22.569Z,25.88
2019-04-01T14:08:49.258Z,21.90
2019-04-01T14:11:15.090Z,27.35
2019-04-01T14:13:41.037Z,31.20
2019-04-01T14:16:07.231Z,21.85
2019-04-01T14:18:33.205Z,21.20
2019-04-01T14:21:14.912Z,22.10
2019-04-01T14:23:28.204Z,19.05
2019-04-01T14:25:54.191Z,22.80
2019-04-01T14:28:20.297Z,25.35
2019-04-01T14:30:46.448Z,23.87
2019-04-01T14:33:12.345Z,24.27
2019-04-01T14:35:38.247Z,27.13
2019-04-01T14:38:04.268Z,23.70
2019-04-01T14:40:32.592Z,20.97
2019-04-01T14:42:58.612Z,20.10
2019-04-01T14:45:24.702Z,20.43
2019-04-01T14:47:57.411Z,21.90
2019-04-01T14:50:18.601Z,21.45
2019-04-01T14:52:44.857Z,21.60
2019-04-01T14:55:11.035Z,21.95
2019-04-01T14:57:36.917Z,25.08
2019-04-01T15:00:06.602Z,22.80
2019-04-01T15:02:32.758Z,25.08
2019-04-01T15:04:58.767Z,27.73
2019-04-01T15:07:27.907Z,26.68
2019-04-01T15:09:53.964Z,20.72
2019-04-01T15:12:19.950Z,23.75
2019-04-01T15:14:45.885Z,22.25
2019-04-01T15:17:14.954Z,24.77
2019-04-01T15:19:40.960Z,28.65
2019-04-01T15:22:07.183Z,27.48
2019-04-01T15:24:33.296Z,24.30
2019-04-01T15:26:59.483Z,25.70
2019-04-01T15:29:25.514Z,30.23
2019-04-01T15:31:51.703Z,30.48
2019-04-01T15:34:19.363Z,30.70
2019-04-01T15:36:45.602Z,30.40
2019-04-01T15:39:15.186Z,26.00
2019-04-01T15:41:41.100Z,25.43
2019-04-01T15:44:07.103Z,23.27
2019-04-01T15:46:33.097Z,26.20
2019-04-01T15:48:59.016Z,23.77
2019-04-01T15:51:25.010Z,32.45
2019-04-01T15:53:50.905Z,28.35
2019-04-01T15:56:16.855Z,27.22
2019-04-01T15:58:42.857Z,25.02
2019-04-01T16:01:08.886Z,30.62
2019-04-01T16:03:34.939Z,31.65
2019-04-01T16:06:00.934Z,31.30
2019-04-01T16:08:26.939Z,29.77
2019-04-01T16:10:52.913Z,26.75
2019-04-01T16:13:18.981Z,26.90
2019-04-01T16:15:45.089Z,28.03
2019-04-01T16:18:10.993Z,28.67
2019-04-01T16:20:36.891Z,29.23
2019-04-01T16:23:03.038Z,29.70
2019-04-01T16:25:28.948Z,28.37
2019-04-01T16:27:54.845Z,29.90
2019-04-01T16:30:20.833Z,26.77
2019-04-01T16:32:46.649Z,28.33
2019-04-01T16:35:12.679Z,29.43
2019-04-01T16:37:38.759Z,28.43
2019-04-01T16:40:06.019Z,26.83
2019-04-01T16:42:32.043Z,26.03
2019-04-01T16:44:58.093Z,29.07
2019-04-01T16:47:24.089Z,27.42
2019-04-01T16:49:50.056Z,30.50
2019-04-01T16:52:16.087Z,27.58
2019-04-01T16:54:45.885Z,25.50
2019-04-01T16:57:11.783Z,32.70
2019-04-01T16:59:37.735Z,28.47
2019-04-01T17:02:17.004Z,29.87
2019-04-01T17:04:31.631Z,28.70
2019-04-01T17:06:57.703Z,28.33
2019-04-01T17:09:23.817Z,32.30
2019-04-01T17:11:49.809Z,28.83
2019-04-01T17:14:15.894Z,31.17
2019-04-01T17:16:41.888Z,32.13
2019-04-01T17:19:07.971Z,34.47
2019-04-01T17:21:34.341Z,25.77
2019-04-01T17:24:02.357Z,29.33
2019-04-01T17:26:28.499Z,29.47
2019-04-01T17:28:54.391Z,28.80
2019-04-01T17:31:20.393Z,29.18
2019-04-01T17:33:46.842Z,26.70
2019-04-01T17:36:15.842Z,27.37
2019-04-01T17:38:41.648Z,27.70
2019-04-01T17:41:07.662Z,29.03
2019-04-01T17:43:33.640Z,31.47
2019-04-01T17:46:00.502Z,30.43
2019-04-01T17:48:26.654Z,32.80
2019-04-01T17:50:52.646Z,28.13
2019-04-01T17:53:18.562Z,28.50
2019-04-01T17:55:45.740Z,29.13
2019-04-01T17:58:12.091Z,30.77
2019-04-01T18:00:41.111Z,29.97
2019-04-01T18:03:09.495Z,29.13
2019-04-01T18:05:35.617Z,29.87
2019-04-01T18:08:01.712Z,35.50
2019-04-01T18:10:28.276Z,31.23
2019-04-01T18:12:54.478Z,23.93
2019-04-01T18:15:20.791Z,25.87
2019-04-01T18:17:46.899Z,29.53
2019-04-01T18:20:13.013Z,33.18
2019-04-01T18:22:39.137Z,26.13
2019-04-01T18:25:05.498Z,25.17
2019-04-01T18:27:31.501Z,27.17
2019-04-01T18:29:57.405Z,27.53
2019-04-01T18:32:23.557Z,35.17
2019-04-01T18:34:49.470Z,33.73
2019-04-01T18:37:15.617Z,34.67
2019-04-01T18:39:47.890Z,35.43
2019-04-01T18:42:09.612Z,32.17
2019-04-01T18:44:35.728Z,43.50
2019-04-01T18:47:03.935Z,49.67
2019-04-01T18:49:29.614Z,40.93
2019-04-01T18:51:55.503Z,42.57
2019-04-01T18:54:21.535Z,44.40
2019-04-01T18:56:47.785Z,46.30
2019-04-01T18:59:13.923Z,39.83
2019-04-01T19:01:39.828Z,43.57
2019-04-01T19:04:05.848Z,38.43
2019-04-01T19:06:31.973Z,39.77
2019-04-01T19:09:08.695Z,36.07
2019-04-01T19:11:25.658Z,37.13
2019-04-01T19:13:51.554Z,36.00
2019-04-01T19:16:17.508Z,33.73
2019-04-01T19:18:43.564Z,30.40
2019-04-01T19:21:09.781Z,38.77
2019-04-01T19:25:41.059Z,33.87
2019-04-01T19:28:07.080Z,33.57
2019-04-01T19:30:33.264Z,29.77
2019-04-01T19:32:59.168Z,32.50
2019-04-01T19:35:25.039Z,35.17
2019-04-01T19:37:50.984Z,33.67
2019-04-01T19:40:20.267Z,34.20
2019-04-01T19:42:44.991Z,32.40
2019-04-01T19:45:12.420Z,33.43
2019-04-01T19:47:38.418Z,35.03
2019-04-01T19:50:06.398Z,40.47
2019-04-01T19:52:32.423Z,39.70
2019-04-01T19:54:58.329Z,42.20
2019-04-01T19:57:24.682Z,37.67
2019-04-01T19:59:50.711Z,40.40
2019-04-01T20:02:16.683Z,32.50
2019-04-01T20:04:42.786Z,33.97
2019-04-01T20:07:08.884Z,36.60
2019-04-01T20:09:34.820Z,33.57
2019-04-01T20:12:00.703Z,35.30
2019-04-01T20:14:26.698Z,33.17
2019-04-01T20:16:52.735Z,34.57
2019-04-01T20:19:18.733Z,36.33
2019-04-01T20:21:47.275Z,40.03
2019-04-01T20:24:12.419Z,35.90
2019-04-01T20:26:38.563Z,36.63
2019-04-01T20:29:04.816Z,36.53
2019-04-01T20:31:30.810Z,36.07
2019-04-01T20:33:56.920Z,33.87
2019-04-01T20:36:28.649Z,37.63
2019-04-01T20:38:52.757Z,40.70
2019-04-01T20:41:18.921Z,36.33
2019-04-01T20:43:45.052Z,35.33
2019-04-01T20:46:11.390Z,40.87
2019-04-01T20:48:37.400Z,36.40
2019-04-01T20:51:03.502Z,39.43
2019-04-01T20:53:29.509Z,31.63
2019-04-01T20:55:55.975Z,45.47
2019-04-01T20:58:22.113Z,33.40
2019-04-01T21:00:48.150Z,37.87
2019-04-01T21:03:14.863Z,35.00
2019-04-01T21:05:41.351Z,40.47
2019-04-01T21:08:07.407Z,34.50
2019-04-01T21:10:33.910Z,36.70
2019-04-01T21:13:00.410Z,36.63
2019-04-01T21:15:27.053Z,38.30
2019-04-01T21:17:53.128Z,34.27
2019-04-01T21:20:19.138Z,33.43
2019-04-01T21:22:45.076Z,34.90
2019-04-01T21:25:11.768Z,36.07
2019-04-01T21:27:38.175Z,32.83
2019-04-01T21:30:09.439Z,33.90
2019-04-01T21:32:35.548Z,37.60
2019-04-01T21:35:01.947Z,31.60
2019-04-01T21:37:27.948Z,37.40
2019-04-01T21:39:53.963Z,34.07
2019-04-01T21:42:19.942Z,33.83
2019-04-01T21:44:47.441Z,38.03
2019-04-01T21:47:13.534Z,29.13
2019-04-01T21:49:39.437Z,32.33
2019-04-01T21:52:06.056Z,34.10
2019-04-01T21:54:32.083Z,33.73
2019-04-01T21:56:58.167Z,30.73
2019-04-01T21:59:24.143Z,34.37
2019-04-01T22:01:50.231Z,31.17
2019-04-01T22:04:16.104Z,33.00
2019-04-01T22:06:42.153Z,31.33
2019-04-01T22:09:09.253Z,34.37
2019-04-01T22:11:35.328Z,35.47
2019-04-01T22:14:01.322Z,37.00
2019-04-01T22:16:27.184Z,31.53
2019-04-01T22:18:53.178Z,31.73
2019-04-01T22:21:19.120Z,31.07
2019-04-01T22:23:45.063Z,33.00
2019-04-01T22:26:10.957Z,32.80
2019-04-01T22:28:36.951Z,29.73
2019-04-01T22:31:02.866Z,29.37
2019-04-01T22:33:28.775Z,31.97
2019-04-01T22:35:54.693Z,32.47
2019-04-01T22:38:25.323Z,35.40
2019-04-01T22:40:48.716Z,34.10
2019-04-01T22:43:14.613Z,30.33
2019-04-01T22:45:40.494Z,34.70
2019-04-01T22:48:06.524Z,34.50
2019-04-01T22:50:32.521Z,34.30
2019-04-01T22:52:58.406Z,32.83
2019-04-01T22:55:24.530Z,29.50
2019-04-01T22:57:50.502Z,34.20
2019-04-01T23:00:17.487Z,29.47
2019-04-01T23:02:44.425Z,31.73
2019-04-01T23:05:10.544Z,34.67
2019-04-01T23:07:36.549Z,35.23
2019-04-01T23:10:05.307Z,29.33
2019-04-01T23:12:31.204Z,31.97
2019-04-01T23:14:57.223Z,29.10
2019-04-01T23:17:23.123Z,33.33
2019-04-01T23:19:49.032Z,29.57
2019-04-01T23:22:15.110Z,31.53
2019-04-01T23:24:41.121Z,30.47
2019-04-01T23:27:07.018Z,27.80
2019-04-01T23:29:33.055Z,28.17
2019-04-01T23:31:58.931Z,29.27
2019-04-01T23:34:24.816Z,31.20
2019-04-01T23:36:50.729Z,27.07
2019-04-01T23:39:16.640Z,32.27
2019-04-01T23:41:42.700Z,30.67
2019-04-01T23:44:08.625Z,28.93
2019-04-01T23:46:34.606Z,29.33
2019-04-01T23:49:00.573Z,27.77
2019-04-01T23:51:26.472Z,32.33
2019-04-01T23:53:52.370Z,34.67
2019-04-01T23:56:18.641Z,28.73
2019-04-01T23:58:44.529Z,32.53
